createdAt,value
2022-08-18T00:01:05.397Z,97065.41
2022-08-18T00:03:56.000Z,97047.31
2022-08-18T00:06:18.926Z,97050.00
2022-08-18T00:08:45.432Z,97051.38
2022-08-18T00:11:12.091Z,97041.78
2022-08-18T00:13:38.607Z,97050.44
2022-08-18T00:16:05.205Z,97044.31
2022-08-18T00:18:31.711Z,97055.72
2022-08-18T00:20:58.183Z,97038.69
2022-08-18T00:23:24.670Z,97042.56
2022-08-18T00:25:51.223Z,97042.06
2022-08-18T00:28:17.759Z,97025.44
2022-08-18T00:30:44.282Z,97033.75
2022-08-18T00:33:11.945Z,97037.84
2022-08-18T00:35:38.619Z,97035.09
2022-08-18T00:38:06.597Z,97036.78
2022-08-18T00:40:38.120Z,97039.78
2022-08-18T00:43:06.101Z,97035.22
2022-08-18T00:45:36.160Z,97048.75
2022-08-18T00:48:03.510Z,97031.22
2022-08-18T00:50:34.881Z,97016.84
2022-08-18T00:53:18.469Z,97013.50
2022-08-18T00:55:54.511Z,97012.59
2022-08-18T00:58:27.167Z,97021.28
2022-08-18T01:00:54.859Z,97026.34
2022-08-18T01:03:24.991Z,97021.38
2022-08-18T01:05:55.066Z,97016.94
2022-08-18T01:08:29.223Z,97002.84
2022-08-18T01:10:57.737Z,96999.13
2022-08-18T01:13:29.503Z,97003.44
2022-08-18T01:15:56.546Z,97010.69
2022-08-18T01:18:41.791Z,97007.13
2022-08-18T01:21:30.212Z,96997.97
2022-08-18T01:23:57.420Z,97000.28
2022-08-18T01:26:26.107Z,97005.66
2022-08-18T01:28:53.035Z,96994.00
2022-08-18T01:31:39.610Z,96996.19
2022-08-18T01:34:21.524Z,97001.63
2022-08-18T01:36:48.394Z,97007.94
2022-08-18T01:39:14.881Z,96989.31
2022-08-18T01:42:04.555Z,96995.66
2022-08-18T01:44:31.141Z,96991.44
2022-08-18T01:46:57.699Z,96982.03
2022-08-18T01:49:24.327Z,96977.13
2022-08-18T01:51:52.628Z,96970.03
2022-08-18T01:54:19.115Z,96976.28
2022-08-18T01:56:48.388Z,96980.81
2022-08-18T01:59:15.472Z,96971.72
2022-08-18T02:01:50.380Z,96984.09
2022-08-18T02:04:37.058Z,96973.44
2022-08-18T02:07:06.150Z,96958.09
2022-08-18T02:09:33.628Z,96963.03
2022-08-18T02:12:01.021Z,96960.56
2022-08-18T02:14:27.714Z,96972.59
2022-08-18T02:17:02.290Z,96986.84
2022-08-18T02:19:48.165Z,96990.78
2022-08-18T02:22:16.783Z,96989.25
2022-08-18T02:24:43.901Z,96993.31
2022-08-18T02:27:11.495Z,96983.16
2022-08-18T02:29:38.071Z,96984.47
2022-08-18T02:32:05.215Z,96984.13
2022-08-18T02:34:31.772Z,96971.13
2022-08-18T02:37:00.073Z,96979.47
2022-08-18T02:39:26.890Z,96991.03
2022-08-18T02:41:53.527Z,96989.94
2022-08-18T02:44:20.342Z,97005.81
2022-08-18T02:46:51.592Z,96993.19
2022-08-18T02:49:18.203Z,97001.25
2022-08-18T02:51:44.930Z,96997.34
2022-08-18T02:54:11.523Z,96996.50
2022-08-18T02:56:41.175Z,96995.75
2022-08-18T02:59:13.173Z,97003.50
2022-08-18T03:01:40.832Z,97012.19
2022-08-18T03:04:09.206Z,97013.09
2022-08-18T03:06:36.589Z,96994.59
2022-08-18T03:09:04.320Z,96995.31
2022-08-18T03:11:30.887Z,96989.41
2022-08-18T03:13:57.706Z,96996.50
2022-08-18T03:16:24.606Z,96998.41
2022-08-18T03:18:52.173Z,96990.72
2022-08-18T03:21:21.671Z,96995.66
2022-08-18T03:24:00.694Z,96994.28
2022-08-18T03:26:28.441Z,96995.41
2022-08-18T03:28:55.508Z,97006.25
2022-08-18T03:31:23.161Z,97002.34
2022-08-18T03:33:51.876Z,97011.91
2022-08-18T03:36:20.251Z,97003.28
2022-08-18T03:38:47.479Z,97010.34
2022-08-18T03:41:57.014Z,97016.72
2022-08-18T03:44:07.267Z,97015.22
2022-08-18T03:46:33.862Z,97011.31
2022-08-18T03:49:02.056Z,97019.94
2022-08-18T03:51:30.122Z,97018.22
2022-08-18T03:54:00.533Z,97016.09
2022-08-18T03:56:29.418Z,97014.56
2022-08-18T03:58:57.606Z,97021.75
2022-08-18T04:01:27.180Z,97019.44
2022-08-18T04:03:58.530Z,97018.66
2022-08-18T04:06:30.432Z,97017.38
2022-08-18T04:08:58.500Z,97012.34
2022-08-18T04:11:25.257Z,97011.88
2022-08-18T04:13:51.862Z,97008.34
2022-08-18T04:16:18.350Z,97002.06
2022-08-18T04:18:44.863Z,97000.13
2022-08-18T04:21:13.537Z,97004.00
2022-08-18T04:23:43.990Z,97004.38
2022-08-18T04:26:19.027Z,97004.75
2022-08-18T04:28:46.427Z,96992.06
2022-08-18T04:31:14.164Z,96994.66
2022-08-18T04:33:42.033Z,96998.38
2022-08-18T04:36:13.587Z,97002.25
2022-08-18T04:38:47.305Z,97010.22
2022-08-18T04:41:14.542Z,97016.13
2022-08-18T04:43:41.282Z,97012.25
2022-08-18T04:46:08.313Z,97017.75
2022-08-18T04:48:36.491Z,97012.50
2022-08-18T04:51:07.791Z,97018.03
2022-08-18T04:53:46.893Z,97022.03
2022-08-18T04:56:14.913Z,97020.06
2022-08-18T04:58:41.835Z,97019.50
2022-08-18T05:01:09.998Z,97021.50
2022-08-18T05:03:38.418Z,97020.09
2022-08-18T05:06:16.830Z,97018.91
2022-08-18T05:08:43.645Z,97005.59
2022-08-18T05:11:10.254Z,97015.31
2022-08-18T05:13:37.007Z,97001.34
2022-08-18T05:16:11.774Z,96999.28
2022-08-18T05:18:43.460Z,96996.16
2022-08-18T05:21:14.090Z,96999.00
2022-08-18T05:23:44.587Z,96999.94
2022-08-18T05:26:11.682Z,96985.50
2022-08-18T05:28:38.254Z,96986.34
2022-08-18T05:31:13.939Z,96985.53
2022-08-18T05:33:40.891Z,96996.03
2022-08-18T05:36:30.395Z,97001.56
2022-08-18T05:38:59.967Z,96996.28
2022-08-18T05:41:29.006Z,97002.59
2022-08-18T05:43:57.152Z,97005.34
2022-08-18T05:46:30.789Z,97010.78
2022-08-18T05:48:57.280Z,97005.63
2022-08-18T05:51:28.447Z,97012.13
2022-08-18T05:54:13.555Z,97010.66
2022-08-18T05:56:47.676Z,97010.69
2022-08-18T05:59:26.366Z,97020.44
2022-08-18T06:01:59.658Z,97018.41
2022-08-18T06:04:38.874Z,97022.69
2022-08-18T06:07:08.684Z,97031.16
2022-08-18T06:09:38.502Z,97038.28
2022-08-18T06:12:28.726Z,97041.84
2022-08-18T06:15:01.357Z,97038.84
2022-08-18T06:17:41.372Z,97054.53
2022-08-18T06:20:16.796Z,97063.50
2022-08-18T06:23:01.966Z,97060.56
2022-08-18T06:25:48.294Z,97054.88
2022-08-18T06:28:16.170Z,97053.44
2022-08-18T06:30:42.773Z,97049.63
2022-08-18T06:33:29.758Z,97044.13
2022-08-18T06:36:02.703Z,97047.44
2022-08-18T06:38:48.099Z,97040.75
2022-08-18T06:41:43.207Z,97032.75
2022-08-18T06:44:01.247Z,97029.47
2022-08-18T06:46:34.224Z,97029.97
2022-08-18T06:49:04.432Z,97029.56
2022-08-18T06:51:31.272Z,97024.84
2022-08-18T06:53:57.795Z,97031.09
2022-08-18T06:56:26.243Z,97034.22
2022-08-18T06:58:55.270Z,97045.28
2022-08-18T07:01:23.667Z,97059.47
2022-08-18T07:03:54.820Z,97058.81
2022-08-18T07:06:21.452Z,97058.69
2022-08-18T07:08:48.839Z,97048.09
2022-08-18T07:11:22.900Z,97055.41
2022-08-18T07:14:03.619Z,97064.81
2022-08-18T07:19:31.023Z,97061.16
2022-08-18T07:22:30.094Z,97057.81
2022-08-18T07:25:06.029Z,97048.78
2022-08-18T07:27:41.456Z,97061.63
2022-08-18T07:30:34.156Z,97058.50
2022-08-18T07:33:36.270Z,97067.94
2022-08-18T07:36:06.533Z,97051.63
2022-08-18T07:38:44.023Z,97042.31
2022-08-18T07:41:29.798Z,97040.09
2022-08-18T07:44:00.711Z,97034.41
2022-08-18T07:46:35.430Z,97019.44
2022-08-18T07:49:05.403Z,97019.09
2022-08-18T07:51:53.077Z,97017.03
2022-08-18T07:54:49.433Z,97006.91
2022-08-18T07:57:22.899Z,96994.13
2022-08-18T07:59:49.423Z,96990.66
2022-08-18T08:02:16.000Z,96994.91
2022-08-18T08:04:45.571Z,96991.34
2022-08-18T08:07:25.539Z,96977.72
2022-08-18T08:09:55.228Z,96974.22
2022-08-18T08:12:44.292Z,96962.88
2022-08-18T08:15:15.672Z,96977.19
2022-08-18T08:17:47.956Z,96990.84
2022-08-18T08:20:22.196Z,97000.78
2022-08-18T08:23:09.323Z,97006.41
2022-08-18T08:25:47.971Z,96998.94
2022-08-18T08:28:40.776Z,97001.72
2022-08-18T08:31:36.638Z,96990.72
2022-08-18T08:34:14.970Z,96993.47
2022-08-18T08:36:45.065Z,96983.16
2022-08-18T08:39:14.464Z,96983.38
2022-08-18T08:41:43.734Z,96978.75
2022-08-18T08:44:15.319Z,96972.78
2022-08-18T08:47:02.471Z,96974.91
2022-08-18T08:49:35.698Z,96964.63
2022-08-18T08:52:09.594Z,96969.53
2022-08-18T08:54:48.320Z,96964.72
2022-08-18T08:57:16.275Z,96951.75
2022-08-18T08:59:44.426Z,96959.84
2022-08-18T09:02:27.016Z,96957.72
2022-08-18T09:05:08.925Z,96967.53
2022-08-18T09:07:42.122Z,96969.16
2022-08-18T09:10:27.227Z,96972.75
2022-08-18T09:12:53.868Z,96960.00
2022-08-18T09:15:39.725Z,96960.53
2022-08-18T09:18:06.243Z,96960.22
2022-08-18T09:20:32.949Z,96955.25
2022-08-18T09:23:19.788Z,96962.25
2022-08-18T09:25:48.432Z,96955.63
2022-08-18T09:28:15.103Z,96956.00
2022-08-18T09:30:47.729Z,96967.16
2022-08-18T09:33:20.776Z,96958.03
2022-08-18T09:36:06.011Z,96953.28
2022-08-18T09:39:04.741Z,96947.69
2022-08-18T09:41:37.913Z,96937.44
2022-08-18T09:44:17.922Z,96924.91
2022-08-18T09:46:54.042Z,96924.84
2022-08-18T09:50:37.217Z,96923.59
2022-08-18T09:55:18.110Z,96919.88
2022-08-18T09:57:46.660Z,96916.97
2022-08-18T10:00:19.864Z,96914.34
2022-08-18T10:02:51.255Z,96915.59
2022-08-18T10:05:22.391Z,96916.88
2022-08-18T10:07:55.964Z,96917.94
2022-08-18T10:11:02.863Z,96919.41
2022-08-18T10:13:49.889Z,96913.22
2022-08-18T10:16:16.484Z,96924.00
2022-08-18T10:19:01.925Z,96920.88
2022-08-18T10:24:36.283Z,96911.94
2022-08-18T10:27:07.295Z,96907.41
2022-08-18T10:29:44.914Z,96909.75
2022-08-18T10:32:14.451Z,96907.38
2022-08-18T10:34:51.477Z,96891.91
2022-08-18T10:37:45.271Z,96886.00
2022-08-18T10:40:21.310Z,96884.38
2022-08-18T10:43:46.228Z,96879.63
2022-08-18T10:49:17.612Z,96874.78
2022-08-18T10:51:59.463Z,96900.34
2022-08-18T10:54:33.525Z,96898.47
2022-08-18T10:57:20.270Z,96897.91
2022-08-18T10:59:55.044Z,96901.63
2022-08-18T11:02:37.317Z,96899.06
2022-08-18T11:05:11.120Z,96903.63
2022-08-18T11:07:42.900Z,96917.81
2022-08-18T11:13:24.440Z,96920.31
2022-08-18T11:16:00.435Z,96921.63
2022-08-18T11:18:42.920Z,96928.41
2022-08-18T11:21:31.413Z,96920.16
2022-08-18T11:27:24.839Z,96913.13
2022-08-18T11:29:51.992Z,96930.81
2022-08-18T11:32:27.642Z,96931.66
2022-08-18T11:35:01.599Z,96929.81
2022-08-18T11:37:48.583Z,96931.81
2022-08-18T11:40:34.532Z,96916.69
2022-08-18T11:43:13.405Z,96922.78
2022-08-18T11:45:47.944Z,96911.03
2022-08-18T11:48:14.490Z,96916.97
2022-08-18T11:50:54.666Z,96918.47
2022-08-18T11:53:44.077Z,96926.06
2022-08-18T11:56:14.320Z,96922.63
2022-08-18T11:58:43.475Z,96902.88
2022-08-18T12:01:11.198Z,96891.84
2022-08-18T12:03:37.838Z,96897.16
2022-08-18T12:06:20.274Z,96908.25
2022-08-18T12:08:58.109Z,96897.84
2022-08-18T12:11:30.313Z,96901.16
2022-08-18T12:13:59.741Z,96891.34
2022-08-18T12:16:35.035Z,96887.56
2022-08-18T12:19:03.320Z,96884.00
2022-08-18T12:21:32.322Z,96890.59
2022-08-18T12:23:58.887Z,96877.25
2022-08-18T12:26:38.260Z,96887.31
2022-08-18T12:29:11.120Z,96885.19
2022-08-18T12:31:47.507Z,96900.44
2022-08-18T12:34:15.358Z,96893.16
2022-08-18T12:36:42.364Z,96888.91
2022-08-18T12:39:10.255Z,96892.56
2022-08-18T12:41:37.603Z,96881.19
2022-08-18T12:44:04.481Z,96892.13
2022-08-18T12:46:39.894Z,96907.84
2022-08-18T12:49:20.453Z,96902.66
2022-08-18T12:51:50.387Z,96912.88
2022-08-18T12:54:17.860Z,96924.63
2022-08-18T12:56:46.495Z,96933.91
2022-08-18T12:59:13.003Z,96925.34
2022-08-18T13:01:40.245Z,96926.81
2022-08-18T13:04:13.045Z,96937.38
2022-08-18T13:06:48.537Z,96933.41
2022-08-18T13:09:35.102Z,96936.66
2022-08-18T13:12:16.137Z,96944.91
2022-08-18T13:14:43.732Z,96948.69
2022-08-18T13:17:15.284Z,96960.22
2022-08-18T13:19:56.587Z,96963.41
2022-08-18T13:22:32.090Z,96966.81
2022-08-18T13:25:00.273Z,96946.88
2022-08-18T13:27:27.028Z,96964.03
2022-08-18T13:29:59.499Z,96963.91
2022-08-18T13:32:26.246Z,96950.38
2022-08-18T13:34:54.715Z,96954.94
2022-08-18T13:37:26.529Z,96950.69
2022-08-18T13:39:54.505Z,96927.34
2022-08-18T13:42:26.171Z,96941.50
2022-08-18T13:45:25.309Z,96951.53
2022-08-18T13:47:51.176Z,96957.75
2022-08-18T13:50:19.617Z,96970.72
2022-08-18T13:52:46.324Z,96980.75
2022-08-18T13:55:16.732Z,96996.84
2022-08-18T13:57:50.876Z,97021.22
2022-08-18T14:00:29.866Z,97059.16
2022-08-18T14:02:58.872Z,97092.03
2022-08-18T14:05:50.927Z,97306.75
2022-08-18T14:08:12.507Z,97359.63
2022-08-18T14:10:50.739Z,97383.78
2022-08-18T14:13:20.848Z,97416.00
2022-08-18T14:15:54.862Z,97400.19
2022-08-18T14:18:29.021Z,97401.88
2022-08-18T14:21:16.610Z,97350.78
2022-08-18T14:24:02.126Z,97303.00
2022-08-18T14:26:50.182Z,97269.31
2022-08-18T14:29:17.734Z,97215.09
2022-08-18T14:32:04.806Z,97189.25
2022-08-18T14:34:31.365Z,97180.56
2022-08-18T14:36:58.523Z,97158.03
2022-08-18T14:39:25.701Z,97130.03
2022-08-18T14:41:54.907Z,97123.19
2022-08-18T14:44:24.272Z,97067.66
2022-08-18T14:46:54.394Z,97046.16
2022-08-18T14:49:28.526Z,97036.16
2022-08-18T14:51:57.327Z,97016.25
2022-08-18T14:54:24.211Z,97011.03
2022-08-18T14:56:55.425Z,97025.56
2022-08-18T14:59:23.243Z,97042.97
2022-08-18T15:01:51.442Z,97056.56
2022-08-18T15:04:19.031Z,97053.03
2022-08-18T15:06:56.018Z,97058.84
2022-08-18T15:09:24.411Z,97041.63
2022-08-18T15:11:55.823Z,97030.16
2022-08-18T15:14:26.599Z,97042.34
2022-08-18T15:17:00.108Z,97039.63
2022-08-18T15:19:57.729Z,97026.47
2022-08-18T15:22:31.511Z,97022.34
2022-08-18T15:25:17.867Z,97036.41
2022-08-18T15:27:47.833Z,97038.44
2022-08-18T15:30:19.848Z,97048.34
2022-08-18T15:32:47.476Z,97043.03
2022-08-18T15:35:17.074Z,97032.19
2022-08-18T15:37:44.844Z,97026.22
2022-08-18T15:40:21.696Z,97037.22
2022-08-18T15:43:01.461Z,97021.97
2022-08-18T15:45:35.489Z,97006.53
2022-08-18T15:48:02.218Z,97007.56
2022-08-18T15:50:28.763Z,97011.22
2022-08-18T15:52:56.081Z,96999.28
2022-08-18T15:55:23.331Z,96996.47
2022-08-18T15:57:56.899Z,96982.63
2022-08-18T16:00:26.753Z,96979.41
2022-08-18T16:02:57.156Z,96956.88
2022-08-18T16:05:31.320Z,96953.63
2022-08-18T16:07:58.958Z,96954.75
2022-08-18T16:10:26.166Z,96939.94
2022-08-18T16:12:52.689Z,96947.31
2022-08-18T16:15:21.375Z,96946.72
2022-08-18T16:17:49.437Z,96945.09
2022-08-18T16:20:16.067Z,96937.69
2022-08-18T16:22:42.806Z,96928.47
2022-08-18T16:25:09.528Z,96917.97
2022-08-18T16:27:36.511Z,96914.38
2022-08-18T16:30:04.650Z,96906.97
2022-08-18T16:32:31.999Z,96890.34
2022-08-18T16:34:59.052Z,96898.75
2022-08-18T16:37:27.040Z,96893.28
2022-08-18T16:39:54.109Z,96888.25
2022-08-18T16:42:20.791Z,96903.72
2022-08-18T16:44:47.343Z,96885.16
2022-08-18T16:47:17.443Z,96880.81
2022-08-18T16:49:48.724Z,96895.94
2022-08-18T16:52:15.995Z,96900.59
2022-08-18T16:54:46.077Z,96908.81
2022-08-18T16:57:12.660Z,96902.44
2022-08-18T16:59:58.046Z,96901.00
2022-08-18T17:02:43.868Z,96900.63
2022-08-18T17:05:12.299Z,96909.44
2022-08-18T17:07:38.867Z,96913.59
2022-08-18T17:10:06.122Z,96904.66
2022-08-18T17:12:32.741Z,96896.53
2022-08-18T17:14:59.239Z,96910.25
2022-08-18T17:17:25.842Z,96906.53
2022-08-18T17:19:52.400Z,96896.97
2022-08-18T17:22:18.965Z,96892.28
2022-08-18T17:24:49.458Z,96892.00
2022-08-18T17:27:37.247Z,96898.34
2022-08-18T17:30:07.574Z,96909.88
2022-08-18T17:32:51.351Z,96904.03
2022-08-18T17:35:28.890Z,96894.78
2022-08-18T17:38:13.927Z,96883.06
2022-08-18T17:40:46.110Z,96884.06
2022-08-18T17:43:15.057Z,96885.78
2022-08-18T17:45:42.421Z,96884.94
2022-08-18T17:48:22.110Z,96890.19
2022-08-18T17:51:11.358Z,96893.34
2022-08-18T17:53:38.574Z,96900.84
2022-08-18T17:56:07.939Z,96911.59
2022-08-18T17:58:40.678Z,96915.00
2022-08-18T18:01:08.762Z,96918.06
2022-08-18T18:03:35.901Z,96919.97
2022-08-18T18:06:10.322Z,96919.13
2022-08-18T18:08:48.957Z,96938.13
2022-08-18T18:11:15.440Z,96941.25
2022-08-18T18:13:41.987Z,96940.97
2022-08-18T18:16:28.810Z,96936.88
2022-08-18T18:19:02.675Z,96947.09
2022-08-18T18:21:58.947Z,96959.41
2022-08-18T18:24:17.686Z,96963.84
2022-08-18T18:26:52.141Z,96966.22
2022-08-18T18:29:21.195Z,96962.09
2022-08-18T18:31:58.236Z,96967.53
2022-08-18T18:34:28.153Z,96980.69
2022-08-18T18:36:55.259Z,96978.66
2022-08-18T18:39:23.875Z,96989.69
2022-08-18T18:42:29.936Z,96988.03
2022-08-18T18:45:01.139Z,96985.84
2022-08-18T18:47:42.484Z,96987.25
2022-08-18T18:50:12.616Z,96986.50
2022-08-18T18:52:43.597Z,96987.47
2022-08-18T18:55:10.080Z,96992.56
2022-08-18T18:57:59.854Z,96984.84
2022-08-18T19:00:30.222Z,96998.44
2022-08-18T19:03:05.063Z,97000.22
2022-08-18T19:05:38.132Z,97013.78
2022-08-18T19:08:24.225Z,97013.53
2022-08-18T19:10:56.771Z,97018.19
2022-08-18T19:13:33.080Z,97022.84
2022-08-18T19:16:23.670Z,97011.75
2022-08-18T19:19:37.246Z,97025.94
2022-08-18T19:22:05.339Z,97033.22
2022-08-18T19:24:38.570Z,97035.72
2022-08-18T19:27:07.046Z,97038.44
2022-08-18T19:29:38.225Z,97039.41
2022-08-18T19:32:07.643Z,97037.53
2022-08-18T19:34:37.478Z,97033.34
2022-08-18T19:37:40.894Z,97042.03
2022-08-18T19:40:40.065Z,97039.88
2022-08-18T19:43:12.078Z,97039.72
2022-08-18T19:45:41.443Z,97047.84
2022-08-18T19:48:18.098Z,97053.88
2022-08-18T19:50:53.993Z,97047.53
2022-08-18T19:53:23.502Z,97051.44
2022-08-18T19:56:04.278Z,97043.69
2022-08-18T19:59:18.146Z,97047.47
2022-08-18T20:01:52.851Z,97049.59
2022-08-18T20:04:28.221Z,97050.91
2022-08-18T20:06:55.746Z,97055.97
2022-08-18T20:09:43.023Z,97055.44
2022-08-18T20:12:16.057Z,97067.66
2022-08-18T20:14:43.616Z,97050.69
2022-08-18T20:17:10.446Z,97038.91
2022-08-18T20:19:39.910Z,97043.47
2022-08-18T20:22:15.870Z,97038.56
2022-08-18T20:24:45.849Z,97044.19
2022-08-18T20:27:35.103Z,97045.16
2022-08-18T20:30:05.165Z,97037.50
2022-08-18T20:32:34.528Z,97030.44
2022-08-18T20:35:24.373Z,97035.25
2022-08-18T20:37:51.522Z,97044.22
2022-08-18T20:40:41.066Z,97038.44
2022-08-18T20:43:24.025Z,97044.47
2022-08-18T20:45:55.198Z,97045.84
2022-08-18T20:48:23.715Z,97043.06
2022-08-18T20:51:01.006Z,97052.84
2022-08-18T20:53:34.050Z,97060.19
2022-08-18T20:56:32.103Z,97066.28
2022-08-18T20:59:09.052Z,97048.44
2022-08-18T21:01:36.588Z,97041.22
2022-08-18T21:04:03.491Z,97055.34
2022-08-18T21:06:36.351Z,97053.38
2022-08-18T21:09:03.950Z,97054.44
2022-08-18T21:11:40.419Z,97056.59
2022-08-18T21:14:07.691Z,97069.34
2022-08-18T21:16:38.837Z,97062.63
2022-08-18T21:19:19.494Z,97060.22
2022-08-18T21:21:45.964Z,97056.25
2022-08-18T21:24:22.260Z,97046.56
2022-08-18T21:26:48.913Z,97037.88
2022-08-18T21:29:16.359Z,97031.63
2022-08-18T21:31:45.167Z,97035.28
2022-08-18T21:34:15.863Z,97037.59
2022-08-18T21:36:53.496Z,97031.94
2022-08-18T21:39:21.019Z,97049.25
2022-08-18T21:41:48.870Z,97047.00
2022-08-18T21:44:17.914Z,97056.78
2022-08-18T21:46:45.965Z,97082.81
2022-08-18T21:49:13.810Z,97078.72
2022-08-18T21:51:46.007Z,97086.50
2022-08-18T21:54:15.670Z,97093.66
2022-08-18T21:56:42.306Z,97091.22
2022-08-18T21:59:11.837Z,97097.00
2022-08-18T22:01:47.976Z,97098.03
2022-08-18T22:04:24.324Z,97098.34
2022-08-18T22:06:52.938Z,97098.19
2022-08-18T22:09:39.792Z,97091.13
2022-08-18T22:12:51.200Z,97091.50
2022-08-18T22:15:24.307Z,97079.31
2022-08-18T22:17:51.788Z,97080.28
2022-08-18T22:20:37.586Z,97075.69
2022-08-18T22:23:41.692Z,97066.72
2022-08-18T22:26:17.389Z,97065.28
2022-08-18T22:29:00.705Z,97045.78
2022-08-18T22:31:47.150Z,97045.16
2022-08-18T22:34:27.081Z,97046.69
2022-08-18T22:36:56.017Z,97046.84
2022-08-18T22:39:43.602Z,97044.19
2022-08-18T22:42:10.636Z,97055.94
2022-08-18T22:44:37.746Z,97059.16
2022-08-18T22:47:04.641Z,97052.88
2022-08-18T22:49:34.050Z,97049.25
2022-08-18T22:52:00.577Z,97044.47
2022-08-18T22:54:27.262Z,97027.50
2022-08-18T22:56:57.638Z,97026.66
2022-08-18T22:59:25.509Z,97016.63
2022-08-18T23:01:54.153Z,97015.41
2022-08-18T23:04:22.538Z,97001.34
2022-08-18T23:06:52.163Z,96991.34
2022-08-18T23:09:19.588Z,97006.19
2022-08-18T23:11:46.634Z,97021.84
2022-08-18T23:14:13.203Z,97014.31
2022-08-18T23:16:40.185Z,97013.59
2022-08-18T23:19:06.743Z,97012.34
2022-08-18T23:21:35.369Z,96987.28
2022-08-18T23:24:05.924Z,96978.16
2022-08-18T23:26:33.999Z,96982.63
2022-08-18T23:29:00.735Z,96979.72
2022-08-18T23:31:27.819Z,96975.59
2022-08-18T23:33:54.323Z,96975.44
2022-08-18T23:36:21.007Z,96973.34
2022-08-18T23:38:47.496Z,96969.53
2022-08-18T23:41:14.274Z,96967.25
2022-08-18T23:43:41.895Z,96947.97
2022-08-18T23:46:15.674Z,96935.50
2022-08-18T23:48:44.457Z,96928.03
2022-08-18T23:51:10.993Z,96925.06
2022-08-18T23:53:38.207Z,96923.78
2022-08-18T23:56:06.090Z,96929.66
2022-08-18T23:58:32.614Z,96925.59
